Flugplatz Westerland Sylt

Bericht für EDXW

vom 17.09. um 13:20 UTC

Wind 30 kt aus 320°

Sichtweite 10 km oder mehr

gering bewölkt in 1600 ft

Temperatur 12.0°C

Taupunkt 7.0°C

Luftfeuchtigkeit 71%

Luftdruck 1013 hPa

EDXW 171320Z 32030KT 9999 FEW016TCU 12/07 Q1013

Prognose für EDXW

vom 17.09. um 00:00 UTC

Zwischen 00:00 UTC und 00:00 UTC

Wind 25 kt aus 300° in Böen 35 kt

Sichtweite 10 km oder mehr

aufgelockert bewölkt in 2000 ft


Zwischen 00:00 UTC und 00:00 UTC zeitweise

Wind 30 kt aus 300° in Böen 45 kt

Sichtweite 4000 m

Regenschauer

aufgebrochene Bewölkung in 1200 ft

TAF EDXW 171100Z 1712/1721 30025G35KT 9999 SCT020 TEMPO 1712/1721 30030G45KT 4000 SHRA BKN012CB
Impressum